Time;durP1;ratioP1;P1;durP2;ratioP2;P2;SDS_P1;SDS_P2;PMS_P1;PMS_P2;Temp;Humidity;BMP_temperature;BMP_pressure;BME280_temperature;BME280_humidity;BME280_pressure;Samples;Min_cycle;Max_cycle;Signal;HPM_P1;HPM_P2
2021/07/30 00:02:11;;;;;;;19.05;10.08;;;;;;;18.38;93.10;94416.90;1786164;80;21073;-57
2021/07/30 00:04:38;;;;;;;16.10;9.20;;;;;;;18.38;93.04;94419.69;1786340;79;20967;-57
2021/07/30 00:07:07;;;;;;;12.95;10.35;;;;;;;18.43;92.83;94426.53;1786291;80;20978;-57
2021/07/30 00:09:36;;;;;;;14.00;9.40;;;;;;;18.43;92.49;94418.92;1786267;80;20939;-57
2021/07/30 00:12:07;;;;;;;15.15;10.20;;;;;;;18.44;92.36;94417.66;1786169;80;21022;-57
2021/07/30 00:14:34;;;;;;;15.85;9.35;;;;;;;18.44;92.04;94416.26;1786279;80;20986;-57
2021/07/30 00:17:01;;;;;;;15.55;10.25;;;;;;;18.41;92.16;94420.06;1786605;80;21050;-57
2021/07/30 00:19:28;;;;;;;18.65;10.30;;;;;;;18.41;92.16;94423.47;1786364;80;20970;-57
2021/07/30 00:21:55;;;;;;;16.55;10.28;;;;;;;18.41;92.27;94421.45;1786520;80;21155;-57
2021/07/30 00:24:22;;;;;;;14.93;9.83;;;;;;;18.41;92.44;94420.06;1786123;80;21030;-58
2021/07/30 00:26:50;;;;;;;15.18;9.65;;;;;;;18.42;92.12;94415.27;1786364;80;21541;-58
2021/07/30 00:29:18;;;;;;;18.57;11.00;;;;;;;18.42;91.98;94417.41;1786100;80;21454;-57
2021/07/30 00:31:45;;;;;;;15.98;10.82;;;;;;;18.39;92.15;94419.81;1786494;80;21438;-57
2021/07/30 00:34:12;;;;;;;17.17;10.85;;;;;;;18.35;92.54;94413.73;1786250;80;21097;-57
2021/07/30 00:36:40;;;;;;;18.98;10.65;;;;;;;18.34;92.87;94413.61;1783051;80;21098;-57
2021/07/30 00:39:09;;;;;;;16.25;9.60;;;;;;;18.34;92.95;94416.39;1782689;80;21534;-56
2021/07/30 00:41:39;;;;;;;19.00;9.95;;;;;;;18.36;92.85;94416.65;1782646;80;20970;-57
2021/07/30 00:44:09;;;;;;;18.20;11.00;;;;;;;18.36;92.64;94410.30;1782777;80;21450;-57
2021/07/30 00:46:38;;;;;;;17.45;10.35;;;;;;;18.38;92.42;94409.16;1752622;80;21166;-57
2021/07/30 00:49:07;;;;;;;12.82;9.78;;;;;;;18.38;92.28;94407.77;1752215;80;20951;-57
2021/07/30 00:51:36;;;;;;;11.85;9.45;;;;;;;18.39;91.98;94405.88;1782656;80;20951;-57
2021/07/30 00:54:05;;;;;;;11.63;8.53;;;;;;;18.40;91.64;94406.63;1752795;80;20991;-57
2021/07/30 00:56:37;;;;;;;18.30;9.43;;;;;;;18.38;91.47;94406.37;1782728;80;20995;-57
2021/07/30 00:59:06;;;;;;;18.82;10.95;;;;;;;18.35;91.43;94408.16;1751773;80;21181;-57
2021/07/30 01:01:37;;;;;;;16.32;10.40;;;;;;;18.32;91.50;94409.15;1752540;80;20955;-57
2021/07/30 01:04:06;;;;;;;12.80;9.08;;;;;;;18.29;91.48;94410.16;1753103;80;21483;-57
2021/07/30 01:06:35;;;;;;;13.32;9.58;;;;;;;18.26;91.69;94411.15;1752454;80;20962;-57
2021/07/30 01:09:05;;;;;;;16.65;9.80;;;;;;;18.24;91.66;94408.11;1752567;80;21003;-57
2021/07/30 01:11:37;;;;;;;12.03;9.63;;;;;;;18.22;91.71;94412.03;1752605;80;21149;-57
2021/07/30 01:14:06;;;;;;;;;;;;;;;18.21;91.93;94403.55;1785502;80;21451;-57
2021/07/30 01:16:34;;;;;;;17.37;10.98;;;;;;;18.21;92.06;94409.13;1782673;80;20137;-57
2021/07/30 01:19:03;;;;;;;11.78;8.65;;;;;;;18.18;92.13;94401.78;1728395;80;21426;-57
2021/07/30 01:21:33;;;;;;;12.28;9.40;;;;;;;18.19;92.12;94398.35;1782706;80;21010;-57
2021/07/30 01:24:06;;;;;;;11.55;9.30;;;;;;;18.18;92.08;94394.05;1783145;80;21102;-57
2021/07/30 01:26:35;;;;;;;18.82;9.38;;;;;;;18.19;92.23;94396.96;1782691;80;20983;-57
2021/07/30 01:29:06;;;;;;;14.78;10.25;;;;;;;18.21;92.25;94393.81;1782966;80;21478;-57
2021/07/30 01:31:38;;;;;;;14.18;9.98;;;;;;;18.24;92.18;94402.54;1782802;80;20991;-58
2021/07/30 01:34:04;;;;;;;11.18;8.60;;;;;;;18.25;92.12;94394.31;1783020;80;21443;-58
2021/07/30 01:36:31;;;;;;;15.93;10.05;;;;;;;18.28;91.82;94387.76;1785087;80;21845;-57
2021/07/30 01:38:58;;;;;;;16.52;8.83;;;;;;;18.25;91.60;94388.74;1786278;80;21436;-57
2021/07/30 01:41:25;;;;;;;22.70;9.85;;;;;;;18.24;91.55;94388.61;1786374;80;20942;-58
2021/07/30 01:43:52;;;;;;;14.18;9.93;;;;;;;18.22;91.44;94393.16;1786372;80;20998;-57
2021/07/30 01:46:19;;;;;;;14.47;9.58;;;;;;;18.19;91.66;94396.96;1786307;80;20943;-57
2021/07/30 01:48:45;;;;;;;16.37;9.20;;;;;;;18.19;91.54;94397.73;1786671;80;21719;-57
2021/07/30 01:51:12;;;;;;;11.83;8.23;;;;;;;18.18;91.51;94387.86;1786315;80;20998;-57
2021/07/30 01:53:39;;;;;;;11.73;9.00;;;;;;;18.18;91.56;94392.66;1786289;80;21077;-57
2021/07/30 01:56:07;;;;;;;15.90;8.93;;;;;;;18.18;91.48;94390.52;1786360;80;20939;-57
2021/07/30 01:58:34;;;;;;;17.92;10.35;;;;;;;18.16;91.63;94386.09;1786899;80;21398;-57
2021/07/30 02:01:02;;;;;;;9.75;8.75;;;;;;;18.15;91.71;94385.96;1786282;80;21534;-57
2021/07/30 02:03:28;;;;;;;11.00;8.70;;;;;;;18.16;91.74;94390.27;1786561;79;20947;-57
2021/07/30 02:05:55;;;;;;;13.20;9.08;;;;;;;18.16;91.66;94388.88;1786363;80;20951;-57
2021/07/30 02:08:22;;;;;;;13.32;8.75;;;;;;;18.16;91.81;94387.48;1786360;80;20966;-58
2021/07/30 02:10:49;;;;;;;13.20;9.38;;;;;;;18.18;91.93;94391.91;1786244;80;21018;-57
2021/07/30 02:16:02;;;;;;;10.88;8.95;;;;;;;18.24;91.48;94392.05;1786335;80;20999;-56
2021/07/30 02:18:30;;;;;;;14.98;8.28;;;;;;;18.23;91.10;94395.45;1786345;80;21070;-56
2021/07/30 02:20:57;;;;;;;12.18;7.85;;;;;;;18.22;91.09;94388.98;1786295;80;20967;-57
2021/07/30 02:23:23;;;;;;;12.47;8.10;;;;;;;18.21;90.86;94395.20;1786526;80;21533;-56
2021/07/30 02:25:50;;;;;;;15.93;9.40;;;;;;;18.17;90.98;94402.27;1786354;80;21874;-58
2021/07/30 02:28:16;;;;;;;15.38;8.73;;;;;;;18.18;91.16;94407.36;1786541;80;20951;-57
2021/07/30 02:30:43;;;;;;;13.15;8.00;;;;;;;18.19;91.18;94406.09;1786408;80;20967;-58
2021/07/30 02:33:10;;;;;;;10.63;8.20;;;;;;;18.22;91.09;94413.42;1786288;80;21041;-58
2021/07/30 02:35:37;;;;;;;12.95;8.05;;;;;;;18.21;90.87;94409.13;1786149;80;21049;-58
2021/07/30 02:38:04;;;;;;;11.18;8.45;;;;;;;18.18;90.98;94412.80;1786363;80;21126;-58
2021/07/30 02:40:31;;;;;;;13.35;7.30;;;;;;;18.17;91.20;94411.28;1786101;80;21077;-61
2021/07/30 02:42:57;;;;;;;14.07;8.30;;;;;;;18.16;91.10;94410.50;1786328;80;20930;-58
2021/07/30 02:45:24;;;;;;;7.75;6.58;;;;;;;18.13;90.85;94413.52;1786407;80;21518;-58
2021/07/30 02:47:51;;;;;;;21.57;8.25;;;;;;;18.12;90.61;94410.61;1786429;80;21046;-58
2021/07/30 02:50:17;;;;;;;16.05;8.40;;;;;;;18.08;90.05;94409.48;1786231;80;21416;-58
2021/07/30 02:52:45;;;;;;;11.20;7.75;;;;;;;18.02;89.86;94403.78;1786210;80;20930;-58
2021/07/30 02:55:11;;;;;;;13.03;8.13;;;;;;;17.94;89.86;94409.69;1786324;80;21034;-58
2021/07/30 02:57:38;;;;;;;15.63;9.13;;;;;;;17.90;90.04;94407.17;1786406;80;20964;-58
2021/07/30 03:00:07;;;;;;;12.73;9.13;;;;;;;17.89;90.02;94416.01;1786426;79;20938;-58
2021/07/30 03:02:34;;;;;;;15.98;8.88;;;;;;;17.87;90.06;94410.19;1786414;80;21794;-58
2021/07/30 03:05:00;;;;;;;15.83;8.25;;;;;;;17.87;90.09;94410.19;1786109;80;21042;-57
2021/07/30 03:07:27;;;;;;;10.03;8.05;;;;;;;17.84;90.10;94412.59;1786509;80;21399;-58
2021/07/30 03:09:54;;;;;;;12.20;8.68;;;;;;;17.83;90.28;94416.63;1786287;80;20978;-58
2021/07/30 03:12:21;;;;;;;13.30;9.60;;;;;;;17.85;90.52;94412.06;1786315;80;21006;-58
2021/07/30 03:14:48;;;;;;;16.93;8.83;;;;;;;17.86;90.48;94418.41;1786176;80;21225;-58
2021/07/30 03:17:17;;;;;;;15.32;8.35;;;;;;;17.85;90.71;94417.63;1786001;80;20947;-59
2021/07/30 03:19:44;;;;;;;15.98;8.73;;;;;;;17.88;90.70;94420.06;1786228;80;20936;-57
2021/07/30 03:22:11;;;;;;;10.98;8.28;;;;;;;17.87;90.59;94415.75;1786192;80;21034;-57
2021/07/30 03:24:41;;;;;;;15.38;8.58;;;;;;;17.90;90.63;94416.14;1786397;80;21037;-57
2021/07/30 03:27:07;;;;;;;14.53;8.85;;;;;;;17.94;90.57;94418.81;1786297;80;21398;-57
2021/07/30 03:29:34;;;;;;;16.10;8.95;;;;;;;17.98;90.40;94427.67;1786059;80;20994;-57
2021/07/30 03:32:01;;;;;;;14.93;8.18;;;;;;;18.05;90.07;94424.39;1786114;80;21530;-58
2021/07/30 03:34:32;;;;;;;13.32;8.58;;;;;;;18.10;89.87;94429.85;1786485;80;21463;-58
2021/07/30 03:36:56;;;;;;;18.75;9.55;;;;;;;18.13;89.67;94428.22;1785685;79;21003;-57
2021/07/30 03:39:22;;;;;;;19.42;9.13;;;;;;;18.15;89.46;94427.73;1786366;80;21289;-57
2021/07/30 03:41:49;;;;;;;14.15;8.90;;;;;;;18.13;89.28;94437.31;1786314;80;20966;-57
2021/07/30 03:44:17;;;;;;;19.48;8.20;;;;;;;18.13;89.22;94435.92;1786134;80;20950;-57
2021/07/30 03:46:44;;;;;;;15.93;8.20;;;;;;;18.16;89.19;94436.20;1786292;80;21010;-56
2021/07/30 03:49:11;;;;;;;10.03;7.72;;;;;;;18.20;89.24;94434.06;1786294;80;21022;-61
2021/07/30 03:51:37;;;;;;;13.83;9.23;;;;;;;18.23;88.90;94437.22;1786321;80;21135;-58
2021/07/30 03:54:04;;;;;;;15.20;9.40;;;;;;;18.26;88.83;94432.69;1786274;80;21505;-57
2021/07/30 03:56:31;;;;;;;12.68;9.70;;;;;;;18.29;88.54;94433.09;1786272;80;21029;-57
2021/07/30 03:58:59;;;;;;;17.80;8.10;;;;;;;18.30;88.28;94438.14;1786450;80;21415;-57
2021/07/30 04:01:25;;;;;;;12.18;7.92;;;;;;;18.32;88.16;94436.26;1786295;80;20955;-57
2021/07/30 04:03:52;;;;;;;12.35;8.48;;;;;;;18.35;88.27;94438.80;1786405;80;21147;-57
2021/07/30 04:06:19;;;;;;;15.48;9.28;;;;;;;18.42;87.96;94435.51;1786073;80;20986;-57
2021/07/30 04:08:46;;;;;;;20.17;9.65;;;;;;;18.47;88.06;94431.96;1786223;80;20951;-57
2021/07/30 04:11:14;;;;;;;16.97;9.28;;;;;;;18.53;87.47;94436.92;1786176;80;20990;-57
2021/07/30 04:13:43;;;;;;;22.10;9.20;;;;;;;18.54;87.18;94427.30;1786189;79;21010;-58
2021/07/30 04:16:10;;;;;;;15.80;8.83;;;;;;;18.60;87.25;94430.84;1786259;80;21131;-57
2021/07/30 04:18:36;;;;;;;18.60;8.88;;;;;;;18.67;86.61;94422.61;1786312;80;21442;-57
2021/07/30 04:21:04;;;;;;;13.75;9.28;;;;;;;18.68;86.39;94419.95;1786149;80;21061;-57
2021/07/30 04:23:32;;;;;;;16.07;8.85;;;;;;;18.67;85.93;94420.56;1760379;80;21549;-58
2021/07/30 04:25:59;;;;;;;18.40;8.43;;;;;;;18.66;85.82;94421.83;1786144;80;20971;-58
2021/07/30 04:28:27;;;;;;;13.68;8.18;;;;;;;18.62;85.88;94421.98;1786152;80;21133;-57
2021/07/30 04:30:55;;;;;;;24.75;9.63;;;;;;;18.58;85.80;94425.02;1759296;80;37665;-58
2021/07/30 04:33:21;;;;;;;17.23;10.18;;;;;;;18.56;86.08;94423.37;1786186;80;21007;-57
2021/07/30 04:35:48;;;;;;;14.07;8.78;;;;;;;18.60;86.17;94419.69;1786113;80;20963;-57
2021/07/30 04:38:15;;;;;;;13.88;9.33;;;;;;;18.65;85.97;94420.31;1785680;80;20986;-59
2021/07/30 04:40:42;;;;;;;11.73;8.20;;;;;;;18.70;85.65;94417.41;1785643;80;21824;-58
2021/07/30 04:43:09;;;;;;;13.65;8.35;;;;;;;18.74;85.63;94422.09;1785722;80;20935;-57
2021/07/30 04:45:36;;;;;;;9.90;8.00;;;;;;;18.76;85.44;94425.89;1785708;80;20982;-58
2021/07/30 04:48:05;;;;;;;40.88;10.82;;;;;;;18.77;85.28;94431.59;1785686;80;20946;-57
2021/07/30 04:50:32;;;;;;;15.35;7.90;;;;;;;18.79;85.04;94427.66;1785631;80;20990;-58
2021/07/30 04:52:59;;;;;;;9.38;8.38;;;;;;;18.80;85.11;94431.23;1785338;80;21092;-58
2021/07/30 04:55:25;;;;;;;15.13;10.65;;;;;;;18.83;84.93;94436.53;1785435;80;22063;-58
2021/07/30 04:57:53;;;;;;;10.53;8.50;;;;;;;18.82;84.81;94425.25;1785463;80;21487;-58
2021/07/30 05:00:22;;;;;;;14.20;7.42;;;;;;;18.84;84.79;94415.00;1787173;80;21043;-57
2021/07/30 05:02:54;;;;;;;10.90;7.90;;;;;;;18.91;84.36;94421.45;1787405;80;20943;-58
2021/07/30 05:05:21;;;;;;;12.07;8.40;;;;;;;18.93;84.00;94422.47;1787185;79;21152;-57
2021/07/30 05:07:49;;;;;;;13.93;8.85;;;;;;;18.99;83.96;94421.81;1787226;80;20935;-58
2021/07/30 05:10:16;;;;;;;19.00;8.40;;;;;;;19.07;83.64;94420.05;1787203;80;20944;-58
2021/07/30 05:12:44;;;;;;;15.35;9.50;;;;;;;19.14;83.19;94415.95;1787148;80;21607;-58
2021/07/30 05:15:13;;;;;;;12.88;8.28;;;;;;;19.19;83.54;94416.63;1787503;80;21012;-59
2021/07/30 05:17:40;;;;;;;11.65;8.58;;;;;;;19.30;83.51;94413.17;1787384;80;21804;-57
2021/07/30 05:20:09;;;;;;;13.45;8.83;;;;;;;19.40;83.02;94413.66;1786950;80;20987;-57
2021/07/30 05:22:36;;;;;;;23.07;9.60;;;;;;;19.42;82.54;94404.91;1787333;80;21003;-58
2021/07/30 05:25:07;;;;;;;15.80;8.85;;;;;;;19.45;82.03;94419.22;1787246;80;20960;-58
2021/07/30 05:27:33;;;;;;;15.93;8.58;;;;;;;19.46;81.85;94417.95;1758700;80;21041;-58
2021/07/30 05:30:00;;;;;;;17.95;8.75;;;;;;;19.49;81.63;94423.89;1787287;80;21095;-58
2021/07/30 05:32:28;;;;;;;13.85;7.97;;;;;;;19.51;81.48;94433.91;1787256;80;20944;-58
2021/07/30 05:34:55;;;;;;;15.45;10.10;;;;;;;19.56;81.41;94426.80;1787324;80;20959;-58
2021/07/30 05:37:22;;;;;;;14.85;8.65;;;;;;;19.53;81.24;94425.77;1790048;80;21033;-58
2021/07/30 05:39:48;;;;;;;17.02;9.43;;;;;;;19.48;81.27;94429.97;1807675;79;21088;-58
2021/07/30 05:42:15;;;;;;;16.40;9.18;;;;;;;19.46;81.45;94426.94;1807182;79;21745;-59
2021/07/30 05:44:42;;;;;;;15.98;9.28;;;;;;;19.49;81.95;94429.48;1797745;78;20958;-59
2021/07/30 05:47:09;;;;;;;17.15;8.88;;;;;;;19.53;81.75;94432.75;1801411;78;21017;-61
2021/07/30 05:49:36;;;;;;;10.55;8.50;;;;;;;19.53;81.71;94422.24;1727983;80;21136;-59
2021/07/30 05:52:04;;;;;;;9.20;8.30;;;;;;;19.51;81.69;94422.74;1766134;79;21102;-62
2021/07/30 05:54:33;;;;;;;16.07;8.43;;;;;;;19.46;81.69;94424.92;1767202;80;21025;-59
2021/07/30 05:57:00;;;;;;;13.78;8.85;;;;;;;19.43;81.87;94425.95;1809536;77;21074;-56
2021/07/30 05:59:27;;;;;;;14.43;11.12;;;;;;;19.46;82.20;94428.34;1786695;78;21095;-59
2021/07/30 06:01:55;;;;;;;11.25;9.23;;;;;;;19.53;82.37;94413.22;1770341;79;21040;-58
2021/07/30 06:04:21;;;;;;;15.43;9.28;;;;;;;19.63;82.16;94424.23;1769412;79;22276;-60
2021/07/30 06:06:49;;;;;;;13.10;9.10;;;;;;;19.73;81.98;94421.91;1773797;79;21135;-59
2021/07/30 06:09:16;;;;;;;12.70;8.83;;;;;;;19.82;81.89;94419.58;1792862;78;21020;-62
2021/07/30 06:11:43;;;;;;;17.70;9.43;;;;;;;19.98;81.69;94422.16;1790584;78;20990;-62
2021/07/30 06:14:11;;;;;;;13.60;9.83;;;;;;;20.10;81.18;94418.08;1799018;78;20997;-60
2021/07/30 06:16:38;;;;;;;12.28;8.30;;;;;;;20.15;80.87;94417.40;1763074;80;21120;-61
2021/07/30 06:19:05;;;;;;;14.55;9.58;;;;;;;20.21;80.36;94417.37;1784958;78;21990;-60
2021/07/30 06:21:32;;;;;;;11.45;9.43;;;;;;;20.28;80.32;94409.20;1771666;79;21518;-59
2021/07/30 06:24:00;;;;;;;13.48;9.48;;;;;;;20.36;79.95;94416.39;1774290;79;21395;-63
2021/07/30 06:26:27;;;;;;;13.40;8.63;;;;;;;20.43;79.75;94411.63;1791086;78;21024;-59
2021/07/30 06:28:54;;;;;;;14.80;10.20;;;;;;;20.48;79.54;94405.23;1764233;79;21493;-65
2021/07/30 06:31:21;;;;;;;17.90;9.55;;;;;;;20.56;79.20;94410.41;1754190;80;21075;-60
2021/07/30 06:33:47;;;;;;;11.93;8.93;;;;;;;20.63;78.84;94400.05;1768149;80;21061;-59
2021/07/30 06:36:17;;;;;;;16.75;9.95;;;;;;;20.73;78.50;94395.66;1783110;80;20998;-63
2021/07/30 06:38:45;;;;;;;16.77;9.98;;;;;;;20.82;78.22;94389.72;1818196;77;21414;-60
2021/07/30 06:41:15;;;;;;;16.97;8.10;;;;;;;20.89;77.68;94392.73;1763019;80;21029;-60
2021/07/30 06:43:42;;;;;;;16.02;10.48;;;;;;;20.97;77.33;94397.88;1803666;78;21136;-64
2021/07/30 06:46:09;;;;;;;11.78;9.33;;;;;;;21.01;76.92;94391.98;1813683;78;21011;-61
2021/07/30 06:48:37;;;;;;;13.43;8.85;;;;;;;21.06;76.68;94393.34;1810062;78;21277;-56
2021/07/30 06:51:04;;;;;;;12.85;9.23;;;;;;;21.10;76.68;94387.45;1778121;79;21041;-62
2021/07/30 06:53:32;;;;;;;14.28;9.50;;;;;;;21.15;76.15;94392.23;1786961;79;21617;-59
2021/07/30 06:55:59;;;;;;;9.15;7.78;;;;;;;21.19;75.75;94383.67;1770382;79;21115;-63
2021/07/30 06:58:25;;;;;;;15.43;7.92;;;;;;;21.28;75.64;94393.77;1780858;78;21052;-59
2021/07/30 07:00:52;;;;;;;10.88;9.05;;;;;;;21.37;75.28;94392.00;1799497;78;20996;-60
2021/07/30 07:03:18;;;;;;;11.57;8.43;;;;;;;21.48;74.86;94393.28;1809469;77;21069;-60
2021/07/30 07:05:45;;;;;;;10.68;8.65;;;;;;;21.58;74.53;94383.22;1795542;78;20934;-60
2021/07/30 07:08:12;;;;;;;15.88;9.65;;;;;;;21.66;74.39;94380.00;1795696;78;21107;-59
2021/07/30 07:10:39;;;;;;;14.33;9.23;;;;;;;21.72;74.10;94381.45;1797857;77;21045;-58
2021/07/30 07:13:08;;;;;;;17.52;8.68;;;;;;;21.80;73.88;94370.41;1804094;78;21546;-59
2021/07/30 07:15:44;;;;;;;12.85;9.08;;;;;;;21.92;73.70;94373.16;1784183;79;21011;-61
2021/07/30 07:18:11;;;;;;;16.30;9.20;;;;;;;22.08;73.69;94369.48;1766955;79;21070;-63
2021/07/30 07:20:39;;;;;;;14.70;9.03;;;;;;;22.23;73.83;94372.59;1789911;79;21107;-60
2021/07/30 07:23:06;;;;;;;13.53;8.55;;;;;;;22.38;74.14;94367.30;1771792;79;21039;-62
2021/07/30 07:25:33;;;;;;;11.22;8.40;;;;;;;22.54;73.55;94357.88;1798594;78;21088;-61
2021/07/30 07:28:00;;;;;;;12.88;8.65;;;;;;;22.68;72.50;94362.22;1808533;78;21033;-59
2021/07/30 07:30:27;;;;;;;15.55;8.88;;;;;;;22.81;72.16;94362.26;1792868;78;20986;-63
2021/07/30 07:32:53;;;;;;;12.85;8.20;;;;;;;22.91;72.21;94353.56;1809868;78;21308;-62
2021/07/30 07:35:20;;;;;;;19.60;8.85;;;;;;;23.04;71.43;94354.96;1820644;78;21499;-60
2021/07/30 07:37:47;;;;;;;10.65;8.80;;;;;;;23.16;70.91;94355.55;1790089;78;20990;-62
2021/07/30 07:40:14;;;;;;;11.38;9.20;;;;;;;23.26;70.43;94350.40;1806338;78;21069;-61
2021/07/30 07:42:41;;;;;;;13.78;8.50;;;;;;;23.34;69.83;94358.27;1789317;78;21643;-65
2021/07/30 07:45:10;;;;;;;12.07;8.78;;;;;;;23.46;70.30;94352.56;1781090;79;21802;-58
2021/07/30 07:47:37;;;;;;;11.03;8.10;;;;;;;23.66;69.92;94350.50;1740460;79;21343;-63
2021/07/30 07:50:05;;;;;;;42.03;10.78;;;;;;;23.84;69.92;94352.45;1770244;79;21014;-65
2021/07/30 07:52:34;;;;;;;12.63;8.45;;;;;;;24.00;69.46;94341.51;1782896;79;21236;-65
2021/07/30 07:55:03;;;;;;;12.93;8.20;;;;;;;24.15;68.34;94350.09;1775467;79;21069;-63
2021/07/30 07:57:30;;;;;;;15.18;8.60;;;;;;;24.28;68.32;94340.22;1771007;79;21173;-60
2021/07/30 07:59:57;;;;;;;9.93;8.30;;;;;;;24.38;68.05;94339.88;1780289;79;21007;-59
2021/07/30 08:02:25;;;;;;;12.70;9.05;;;;;;;24.47;67.46;94337.98;1764789;80;21045;-60
2021/07/30 08:04:52;;;;;;;13.72;7.83;;;;;;;24.53;67.35;94335.84;1797695;78;21505;-59
2021/07/30 08:07:19;;;;;;;12.30;8.95;;;;;;;24.62;67.20;94333.31;1797015;78;21055;-62
2021/07/30 08:09:46;;;;;;;12.70;7.37;;;;;;;24.77;66.78;94329.87;1787474;78;21676;-64
2021/07/30 08:12:13;;;;;;;11.05;7.85;;;;;;;24.92;64.27;94330.01;1798161;78;20977;-61
2021/07/30 08:14:41;;;;;;;12.43;7.92;;;;;;;25.04;64.54;94322.13;1757354;80;21005;-63
2021/07/30 08:17:08;;;;;;;15.58;8.30;;;;;;;25.19;63.45;94317.28;1778275;79;21190;-63
2021/07/30 08:19:37;;;;;;;9.75;7.80;;;;;;;25.35;63.73;94321.72;1763279;80;21107;-60
2021/07/30 08:22:05;;;;;;;14.80;11.00;;;;;;;25.47;62.73;94320.85;1801503;78;21745;-62
2021/07/30 08:24:32;;;;;;;13.48;7.17;;;;;;;25.56;63.76;94328.81;1806468;78;21061;-62
2021/07/30 08:26:59;;;;;;;13.62;11.08;;;;;;;25.67;62.35;94320.69;1816908;78;21001;-62
2021/07/30 08:29:26;;;;;;;10.00;8.03;;;;;;;25.77;62.48;94316.03;1778513;79;21511;-63
2021/07/30 08:31:52;;;;;;;10.32;7.55;;;;;;;25.88;62.20;94322.13;1782116;78;21075;-65
2021/07/30 08:34:19;;;;;;;12.40;7.70;;;;;;;25.98;61.14;94319.62;1790600;78;21101;-64
2021/07/30 08:36:46;;;;;;;11.83;7.92;;;;;;;26.05;60.56;94318.92;1771857;79;20994;-61
2021/07/30 08:39:13;;;;;;;7.55;6.75;;;;;;;26.16;60.65;94321.39;1794889;78;20977;-61
2021/07/30 08:41:40;;;;;;;14.45;7.80;;;;;;;26.30;60.57;94326.98;1805346;78;21044;-61
2021/07/30 08:44:09;;;;;;;9.43;6.50;;;;;;;26.41;59.30;94324.48;1793845;78;22056;-61
2021/07/30 08:46:36;;;;;;;7.58;6.78;;;;;;;26.54;58.13;94324.36;1775134;79;21225;-61
2021/07/30 08:49:05;;;;;;;11.08;6.45;;;;;;;26.64;57.19;94316.86;1783792;79;21034;-63
2021/07/30 08:51:32;;;;;;;11.55;6.33;;;;;;;26.73;56.57;94316.30;1780086;79;20995;-61
2021/07/30 08:53:59;;;;;;;7.00;6.00;;;;;;;26.86;56.08;94321.10;1700806;80;21021;-59
2021/07/30 08:56:26;;;;;;;10.20;6.90;;;;;;;26.96;55.54;94317.83;1815824;78;21001;-59
2021/07/30 08:58:53;;;;;;;11.85;6.25;;;;;;;27.03;56.53;94314.23;1748629;78;21309;-62
2021/07/30 09:01:20;;;;;;;8.50;6.00;;;;;;;27.10;56.53;94314.17;1789948;78;21402;-57
2021/07/30 09:03:47;;;;;;;9.25;5.53;;;;;;;27.20;56.84;94317.95;1808478;78;20985;-61
2021/07/30 09:06:20;;;;;;;10.05;6.33;;;;;;;27.30;55.87;94311.80;1810820;78;21022;-61
2021/07/30 09:09:07;;;;;;;9.78;6.12;;;;;;;27.42;53.68;94310.84;1786288;78;21000;-61
2021/07/30 09:11:40;;;;;;;9.23;6.12;;;;;;;27.50;52.78;94308.77;1802673;78;21033;-61
2021/07/30 09:14:11;;;;;;;12.35;5.58;;;;;;;27.49;51.43;94312.15;1806606;78;21753;-63
2021/07/30 09:16:51;;;;;;;8.58;6.10;;;;;;;27.46;51.92;94307.64;1802302;78;21052;-61
2021/07/30 09:19:19;;;;;;;8.10;5.90;;;;;;;27.48;51.58;94304.34;1812518;78;21018;-61
2021/07/30 09:21:45;;;;;;;9.00;5.47;;;;;;;27.46;51.05;94301.34;1803767;78;21076;-64
2021/07/30 09:24:16;;;;;;;11.18;5.53;;;;;;;27.46;49.69;94299.92;1813315;78;21119;-60
2021/07/30 09:26:54;;;;;;;8.18;5.65;;;;;;;27.51;49.48;94298.20;1766272;80;21025;-60
2021/07/30 09:29:25;;;;;;;11.85;5.22;;;;;;;27.62;49.03;94294.30;1795309;78;21136;-60
2021/07/30 09:31:57;;;;;;;14.30;5.87;;;;;;;27.74;49.13;94293.30;1770822;80;21039;-61
2021/07/30 09:34:36;;;;;;;14.80;5.22;;;;;;;27.82;48.73;94294.01;1783977;79;21053;-63
2021/07/30 09:37:27;;;;;;;7.50;5.80;;;;;;;27.93;48.90;94289.36;1737593;80;22952;-60
2021/07/30 09:39:55;;;;;;;7.53;5.33;;;;;;;28.01;49.34;94294.40;1820987;77;21059;-61
2021/07/30 09:42:31;;;;;;;9.20;5.62;;;;;;;27.99;47.90;94289.98;1835632;77;20970;-63
2021/07/30 09:45:00;;;;;;;12.53;5.65;;;;;;;27.91;49.24;94291.34;1795446;77;21501;-62
2021/07/30 09:47:29;;;;;;;11.25;5.47;;;;;;;27.86;50.02;94294.36;1800906;78;21409;-61
2021/07/30 09:50:04;;;;;;;9.15;5.92;;;;;;;27.90;50.21;94288.41;1811410;79;21141;-60
2021/07/30 09:52:34;;;;;;;7.97;5.60;;;;;;;28.01;50.19;94281.67;1789925;79;21073;-61
2021/07/30 09:55:04;;;;;;;9.60;5.00;;;;;;;28.17;50.61;94275.27;1760499;81;21544;-61
2021/07/30 09:57:35;;;;;;;18.60;7.55;;;;;;;28.25;48.83;94270.34;1772285;78;21053;-58
2021/07/30 10:00:06;;;;;;;24.43;7.00;;;;;;;28.19;49.70;94264.16;1783638;79;21001;-61
2021/07/30 10:02:35;;;;;;;11.28;6.33;;;;;;;28.21;49.75;94267.90;1784107;80;21108;-60
2021/07/30 10:05:10;;;;;;;9.05;5.53;;;;;;;28.32;47.67;94273.81;1770404;80;21092;-61
2021/07/30 10:07:38;;;;;;;13.55;5.62;;;;;;;28.38;46.54;94263.04;1791108;80;20935;-64
2021/07/30 10:12:46;;;;;;;7.35;4.70;;;;;;;28.44;45.89;94263.55;1782849;80;21045;-60
2021/07/30 10:15:11;;;;;;;7.30;4.85;;;;;;;28.42;46.38;94264.80;1771968;78;21189;-63
2021/07/30 10:17:45;;;;;;;8.58;4.72;;;;;;;28.51;46.53;94257.09;1789396;80;21042;-61
2021/07/30 10:20:14;;;;;;;8.78;4.90;;;;;;;28.60;45.68;94257.20;1786505;80;21337;-61
2021/07/30 10:23:06;;;;;;;8.50;4.42;;;;;;;28.71;45.05;94258.83;1788988;78;21162;-63
2021/07/30 10:25:41;;;;;;;7.05;4.95;;;;;;;28.90;44.44;94252.00;1765255;79;20953;-60
2021/07/30 10:28:24;;;;;;;10.75;4.30;;;;;;;29.14;42.95;94252.67;1770897;80;21078;-62
2021/07/30 10:31:02;;;;;;;5.05;4.37;;;;;;;29.34;42.66;94244.44;1768195;79;21037;-67
2021/07/30 10:33:40;;;;;;;11.08;4.80;;;;;;;29.61;42.22;94241.81;1770558;80;21562;-60
2021/07/30 10:36:10;;;;;;;5.58;4.17;;;;;;;29.92;41.75;94240.87;1759628;81;21018;-61
2021/07/30 10:38:37;;;;;;;5.37;4.37;;;;;;;30.16;41.43;94235.75;1732035;81;21078;-60
2021/07/30 10:41:12;;;;;;;6.90;4.65;;;;;;;30.35;40.68;94228.77;1736458;80;21115;-60
2021/07/30 10:44:03;;;;;;;16.52;4.75;;;;;;;30.49;39.88;94221.38;1749209;80;21022;-60
2021/07/30 10:46:30;;;;;;;8.33;4.22;;;;;;;30.72;39.26;94213.28;1777688;80;21026;-64
2021/07/30 10:48:57;;;;;;;6.30;4.60;;;;;;;30.96;37.67;94212.34;1749263;80;21499;-59
2021/07/30 10:51:28;;;;;;;6.15;4.03;;;;;;;31.11;36.84;94207.05;1777623;80;21061;-61
2021/07/30 10:54:00;;;;;;;8.03;4.17;;;;;;;31.32;38.52;94208.03;1777590;80;21115;-64
2021/07/30 10:56:38;;;;;;;5.20;3.60;;;;;;;31.64;36.47;94209.02;1778710;80;21133;-63
2021/07/30 10:59:06;;;;;;;10.65;4.62;;;;;;;31.87;35.08;94207.17;1785499;80;20999;-59
2021/07/30 11:01:46;;;;;;;8.60;4.17;;;;;;;32.06;35.49;94207.91;1782659;78;22301;-58
2021/07/30 11:04:13;;;;;;;6.03;3.75;;;;;;;32.28;33.60;94208.13;1786952;79;21077;-64
2021/07/30 11:06:47;;;;;;;10.55;4.00;;;;;;;32.46;32.57;94202.30;1757014;80;21030;-59
2021/07/30 11:09:17;;;;;;;17.85;4.42;;;;;;;32.61;32.36;94198.42;1785764;80;21508;-63
2021/07/30 11:11:58;;;;;;;14.50;4.05;;;;;;;32.92;32.76;94195.61;1785450;80;21030;-60
2021/07/30 11:14:37;;;;;;;7.65;4.22;;;;;;;33.25;32.85;94204.41;1781481;80;21441;-59
2021/07/30 11:17:08;;;;;;;10.93;4.95;;;;;;;33.58;31.89;94194.49;1771449;80;21008;-58
2021/07/30 11:19:40;;;;;;;;;;;;;;;33.93;31.70;94192.58;1779829;80;21135;-59
2021/07/30 11:22:16;;;;;;;12.23;4.53;;;;;;;34.26;31.83;94192.66;1770037;80;28471;-62
2021/07/30 11:24:47;;;;;;;7.92;4.08;;;;;;;34.55;30.95;94183.84;1760361;80;21056;-65
2021/07/30 11:27:17;;;;;;;10.50;4.72;;;;;;;34.84;31.46;94178.56;1773680;79;21700;-59
2021/07/30 11:29:48;;;;;;;9.20;5.78;;;;;;;35.27;30.63;94180.50;1767736;79;21061;-62
2021/07/30 11:32:16;;;;;;;11.43;4.10;;;;;;;35.44;29.54;94177.97;1765574;80;21131;-60
2021/07/30 11:34:47;;;;;;;11.22;3.65;;;;;;;35.63;29.69;94184.86;1739489;80;21070;-66
2021/07/30 11:37:19;;;;;;;7.30;3.50;;;;;;;35.87;29.21;94184.87;1752090;80;21009;-63
2021/07/30 11:39:49;;;;;;;5.62;3.65;;;;;;;35.95;28.68;94182.47;1758799;80;20956;-60